Time;durP1;ratioP1;P1;durP2;ratioP2;P2;SDS_P1;SDS_P2;PMS_P1;PMS_P2;Temp;Humidity;BMP_temperature;BMP_pressure;BME280_temperature;BME280_humidity;BME280_pressure;Samples;Min_cycle;Max_cycle;Signal;HPM_P1;HPM_P2
2021/12/15 00:00:46;;;;;;;23.63;13.90;;;;;;;7.86;100.00;102147.38;4970621;28;20060;-86
2021/12/15 00:03:15;;;;;;;21.52;14.13;;;;;;;7.86;100.00;102140.47;4978467;28;20073;-88
2021/12/15 00:05:44;;;;;;;23.83;16.00;;;;;;;7.90;100.00;102144.00;4961015;28;20563;-86
2021/12/15 00:08:11;;;;;;;21.08;13.75;;;;;;;7.89;100.00;102137.91;4970141;28;20046;-88
2021/12/15 00:10:43;;;;;;;22.27;14.07;;;;;;;7.90;100.00;102139.69;4978105;28;20100;-89
2021/12/15 00:13:16;;;;;;;24.15;13.30;;;;;;;7.91;100.00;102143.16;4960040;28;20054;-87
2021/12/15 00:15:46;;;;;;;20.67;13.20;;;;;;;7.91;100.00;102140.56;4965970;28;20078;-85
2021/12/15 00:18:13;;;;;;;21.75;14.05;;;;;;;7.88;100.00;102133.53;4984125;28;20073;-86
2021/12/15 00:20:42;;;;;;;23.25;13.18;;;;;;;7.88;100.00;102137.88;4965246;28;20104;-88
2021/12/15 00:23:12;;;;;;;20.92;12.43;;;;;;;7.87;100.00;102134.38;4965760;28;20104;-86
2021/12/15 00:25:53;;;;;;;17.30;11.52;;;;;;;7.90;100.00;102131.88;4991062;28;20052;-82
2021/12/15 00:28:20;;;;;;;23.30;13.73;;;;;;;7.88;100.00;102133.53;4976939;28;20058;-87
2021/12/15 00:30:50;;;;;;;18.38;11.95;;;;;;;7.86;100.00;102139.56;4957331;28;20045;-86
2021/12/15 00:33:17;;;;;;;18.20;12.52;;;;;;;7.85;100.00;102143.00;4977423;28;21121;-89
2021/12/15 00:35:44;;;;;;;23.15;14.18;;;;;;;7.77;100.00;102143.69;4995604;28;20050;-86
2021/12/15 00:38:12;;;;;;;18.10;12.38;;;;;;;7.73;100.00;102138.34;4976909;28;20049;-85
2021/12/15 00:40:42;;;;;;;21.23;13.43;;;;;;;7.67;100.00;102136.47;4962040;28;20431;-87
2021/12/15 00:43:09;;;;;;;19.13;12.25;;;;;;;7.63;100.00;102139.84;4958068;28;20050;-87
2021/12/15 00:45:39;;;;;;;20.73;12.52;;;;;;;7.61;100.00;102134.59;4966236;28;20103;-86
2021/12/15 00:48:06;;;;;;;23.25;13.50;;;;;;;7.61;100.00;102141.50;4965119;28;20049;-87
2021/12/15 00:50:35;;;;;;;19.05;12.27;;;;;;;7.58;100.00;102142.31;4972599;28;20042;-89
2021/12/15 00:53:06;;;;;;;19.48;12.93;;;;;;;7.57;100.00;102132.75;4978993;28;20066;-87
2021/12/15 00:55:37;;;;;;;19.23;12.18;;;;;;;7.58;100.00;102133.63;4976883;28;20176;-88
2021/12/15 00:58:06;;;;;;;21.88;12.55;;;;;;;7.57;100.00;102137.97;4978860;28;20073;-87
2021/12/15 01:00:47;;;;;;;18.05;12.18;;;;;;;7.56;100.00;102132.69;4972313;28;20054;-86
2021/12/15 01:03:16;;;;;;;19.42;11.35;;;;;;;7.57;100.00;102132.75;4964204;28;20102;-88
2021/12/15 01:05:51;;;;;;;15.70;9.88;;;;;;;7.57;100.00;102135.34;4973303;28;20043;-87
2021/12/15 01:08:51;;;;;;;18.92;12.77;;;;;;;7.56;100.00;102130.97;4970035;28;20042;-87
2021/12/15 01:11:32;;;;;;;16.90;10.25;;;;;;;7.60;100.00;102137.13;4971044;28;20046;-85
2021/12/15 01:19:52;;;;;;;16.92;11.85;;;;;;;7.72;100.00;102145.28;4973744;28;21137;-89
2021/12/15 01:22:30;;;;;;;16.92;10.43;;;;;;;7.74;100.00;102132.28;4998472;28;20042;-89
2021/12/15 01:25:33;;;;;;;15.50;10.65;;;;;;;7.75;100.00;102134.94;5012561;28;20077;-88
2021/12/15 01:28:29;;;;;;;18.15;11.00;;;;;;;7.80;100.00;102135.06;4965852;28;20138;-88
2021/12/15 01:31:19;;;;;;;15.60;10.63;;;;;;;7.80;100.00;102142.91;4959781;28;20049;-87
2021/12/15 01:33:46;;;;;;;15.32;10.18;;;;;;;7.81;100.00;102146.38;4955838;28;20043;-85
2021/12/15 01:36:18;;;;;;;15.68;10.35;;;;;;;7.82;100.00;102154.22;4956705;28;20109;-84
2021/12/15 01:38:48;;;;;;;15.73;10.13;;;;;;;7.83;100.00;102148.19;4940776;28;20061;-87
2021/12/15 01:41:24;;;;;;;14.15;10.48;;;;;;;7.84;100.00;102159.50;4952451;28;20459;-86
2021/12/15 01:46:59;;;;;;;16.65;10.85;;;;;;;7.89;100.00;102157.91;4967729;28;20253;-87
2021/12/15 01:49:44;;;;;;;13.20;9.70;;;;;;;7.88;100.00;102167.44;4969692;28;20053;-89
2021/12/15 01:52:32;;;;;;;17.23;11.10;;;;;;;7.90;100.00;102160.56;4973332;28;20043;-86
2021/12/15 01:55:13;;;;;;;19.55;11.20;;;;;;;7.93;100.00;102168.44;4971849;28;20054;-89
2021/12/15 01:57:48;;;;;;;18.25;11.25;;;;;;;7.95;100.00;102179.81;4957210;28;20042;-85
2021/12/15 02:00:42;;;;;;;17.35;10.63;;;;;;;7.93;100.00;102175.41;4954488;28;20050;-86
2021/12/15 02:03:09;;;;;;;19.50;12.32;;;;;;;7.92;100.00;102164.06;4951039;28;20061;-89
2021/12/15 02:05:37;;;;;;;19.40;12.45;;;;;;;7.93;100.00;102165.84;4963242;28;20062;-87
2021/12/15 02:08:11;;;;;;;20.63;12.07;;;;;;;7.91;100.00;102164.94;4970740;28;20051;-88
2021/12/15 02:10:41;;;;;;;16.77;11.10;;;;;;;7.91;100.00;102164.94;4957990;28;20054;-89
2021/12/15 02:13:13;;;;;;;17.80;11.45;;;;;;;7.91;100.00;102161.41;4976598;28;20038;-89
2021/12/15 02:15:51;;;;;;;20.58;12.73;;;;;;;7.90;100.00;102162.25;4974043;28;20090;-86
2021/12/15 02:18:25;;;;;;;21.02;13.77;;;;;;;7.88;100.00;102156.13;4964391;28;20039;-85
2021/12/15 02:20:58;;;;;;;22.70;13.40;;;;;;;7.85;100.00;102158.66;4941938;28;20702;-88
2021/12/15 02:24:05;;;;;;;22.30;14.45;;;;;;;7.85;100.00;102153.44;4965355;28;20145;-87
2021/12/15 02:26:44;;;;;;;24.08;13.50;;;;;;;7.85;100.00;102150.81;4938566;28;20065;-86
2021/12/15 02:29:16;;;;;;;23.25;13.48;;;;;;;7.88;100.00;102153.53;4956758;28;20058;-86
2021/12/15 02:31:56;;;;;;;22.75;15.07;;;;;;;7.87;100.00;102160.44;4970009;28;20101;-85
2021/12/15 02:34:55;;;;;;;22.52;14.48;;;;;;;7.89;100.00;102152.69;4971090;28;20053;-84
2021/12/15 02:37:22;;;;;;;25.10;14.20;;;;;;;7.88;100.00;102154.41;4960697;28;20047;-86
2021/12/15 02:40:00;;;;;;;23.38;13.77;;;;;;;7.87;100.00;102151.75;4969195;28;20058;-84
2021/12/15 02:42:51;;;;;;;21.58;13.30;;;;;;;7.88;100.00;102151.78;4970124;28;20063;-86
2021/12/15 02:45:24;;;;;;;24.98;14.23;;;;;;;7.87;100.00;102139.59;4946816;28;20050;-86
2021/12/15 02:47:52;;;;;;;22.60;13.77;;;;;;;7.88;100.00;102140.50;4938714;28;20157;-87
2021/12/15 02:50:30;;;;;;;24.70;15.35;;;;;;;7.89;100.00;102134.44;4951750;28;20054;-85
2021/12/15 02:53:02;;;;;;;19.98;12.80;;;;;;;7.89;100.00;102137.91;4954268;28;20046;-85
2021/12/15 02:55:30;;;;;;;24.15;14.70;;;;;;;7.87;100.00;102143.94;4959763;28;20133;-88
2021/12/15 02:57:58;;;;;;;23.98;14.77;;;;;;;7.86;100.00;102143.06;4927480;28;20809;-86
2021/12/15 03:00:31;;;;;;;27.80;15.40;;;;;;;7.85;100.00;102143.00;4943472;28;20055;-86
2021/12/15 03:03:49;;;;;;;22.67;13.15;;;;;;;7.86;100.00;102142.16;4960575;28;20079;-85
2021/12/15 03:06:24;;;;;;;24.50;13.30;;;;;;;7.90;100.00;102144.00;4966973;28;20057;-84
2021/12/15 03:08:58;;;;;;;22.85;14.63;;;;;;;7.91;100.00;102137.94;4968399;28;20022;-85
2021/12/15 03:16:59;;;;;;;27.33;14.77;;;;;;;8.03;100.00;102140.91;4971106;28;20549;-85
2021/12/15 03:19:26;;;;;;;25.73;16.23;;;;;;;8.06;100.00;102145.31;4955263;28;20057;-88
2021/12/15 03:21:53;;;;;;;26.20;16.05;;;;;;;8.06;100.00;102148.78;4939045;28;20082;-88
2021/12/15 03:24:24;;;;;;;25.52;15.63;;;;;;;8.07;100.00;102147.03;4968323;28;20149;-88
2021/12/15 03:27:01;;;;;;;26.25;15.10;;;;;;;8.07;100.00;102155.78;4971121;28;20401;-87
2021/12/15 03:35:22;;;;;;;22.80;14.80;;;;;;;8.10;100.00;102140.19;4969607;28;20570;-87
2021/12/15 03:37:58;;;;;;;25.58;14.52;;;;;;;8.13;100.00;102149.81;4963481;28;20058;-88
2021/12/15 03:40:40;;;;;;;27.63;16.83;;;;;;;8.14;100.00;102145.50;4959345;28;20054;-84
2021/12/15 03:43:21;;;;;;;23.30;13.63;;;;;;;8.15;100.00;102145.53;4950049;28;20077;-86
2021/12/15 03:45:59;;;;;;;24.65;14.77;;;;;;;8.17;100.00;102141.22;4987716;28;20046;-84
2021/12/15 03:48:32;;;;;;;24.75;13.90;;;;;;;8.17;100.00;102146.44;4986392;28;20105;-84
2021/12/15 03:51:14;;;;;;;20.63;12.88;;;;;;;8.17;100.00;102141.22;4971095;28;20109;-89
2021/12/15 03:53:44;;;;;;;20.88;14.25;;;;;;;8.18;100.00;102139.50;4969990;28;20113;-86
2021/12/15 03:56:13;;;;;;;20.75;13.40;;;;;;;8.17;100.00;102146.44;4967707;28;20133;-86
2021/12/15 03:58:41;;;;;;;19.58;13.02;;;;;;;8.19;100.00;102146.50;4962684;28;20145;-85
2021/12/15 04:01:19;;;;;;;22.70;13.07;;;;;;;8.20;100.00;102149.13;4962681;28;20062;-83
2021/12/15 04:03:50;;;;;;;21.98;13.23;;;;;;;8.18;100.00;102140.38;4972069;28;20049;-85
2021/12/15 04:06:24;;;;;;;19.98;12.40;;;;;;;8.18;100.00;102142.13;4969248;28;20117;-89
2021/12/15 04:08:51;;;;;;;21.48;14.27;;;;;;;8.20;100.00;102148.25;4974059;28;21211;-86
2021/12/15 04:11:21;;;;;;;20.42;13.48;;;;;;;8.21;100.00;102156.13;4967320;28;20137;-85
2021/12/15 04:13:48;;;;;;;20.50;12.75;;;;;;;8.20;100.00;102154.34;4965867;28;20054;-87
2021/12/15 04:16:42;;;;;;;21.73;11.88;;;;;;;8.20;100.00;102153.47;4972613;28;20146;-88
2021/12/15 04:19:15;;;;;;;17.70;12.18;;;;;;;8.22;100.00;102151.78;4969420;28;20046;-86
2021/12/15 04:21:43;;;;;;;19.42;12.75;;;;;;;8.22;100.00;102157.88;4973283;28;20058;-87
2021/12/15 04:24:33;;;;;;;18.88;12.30;;;;;;;8.23;100.00;102157.03;4982181;28;20058;-88
2021/12/15 04:27:02;;;;;;;19.25;11.95;;;;;;;8.24;100.00;102163.16;4955703;28;20098;-86
2021/12/15 04:29:30;;;;;;;20.17;12.68;;;;;;;8.25;100.00;102164.88;4937295;28;20134;-88
2021/12/15 04:32:16;;;;;;;19.92;12.43;;;;;;;8.25;100.00;102157.97;4937119;28;20054;-85
2021/12/15 04:34:43;;;;;;;17.52;12.02;;;;;;;8.28;100.00;102162.38;4939787;28;20292;-89
2021/12/15 04:37:10;;;;;;;20.25;12.75;;;;;;;8.25;100.00;102157.97;4940121;28;20051;-89
2021/12/15 04:39:36;;;;;;;17.63;12.48;;;;;;;8.27;100.00;102158.00;4967935;28;20101;-90
2021/12/15 04:42:05;;;;;;;19.77;12.23;;;;;;;8.28;100.00;102165.00;4964206;28;20046;-88
2021/12/15 04:44:40;;;;;;;20.08;12.90;;;;;;;8.27;100.00;102156.25;4970931;28;20050;-88
2021/12/15 04:47:11;;;;;;;19.08;12.27;;;;;;;8.27;100.00;102165.81;4958399;28;20076;-87
2021/12/15 04:49:57;;;;;;;19.85;12.88;;;;;;;8.28;100.00;102165.00;4932569;28;20055;-88
2021/12/15 04:52:28;;;;;;;18.17;11.30;;;;;;;8.30;100.00;102168.50;4965901;28;21429;-85
2021/12/15 04:55:01;;;;;;;17.77;11.65;;;;;;;8.28;100.00;102165.84;4969159;28;20114;-85
2021/12/15 04:57:37;;;;;;;18.90;12.77;;;;;;;8.30;100.00;102165.88;4962925;28;20045;-89
2021/12/15 05:00:13;;;;;;;19.85;12.82;;;;;;;8.29;100.00;102169.34;4955944;28;20047;-90
2021/12/15 05:02:53;;;;;;;;;;;;;;;;;;;;;
2021/12/15 05:05:38;;;;;;;17.23;11.63;;;;;;;8.21;100.00;102168.28;4954778;28;20101;-89
2021/12/15 05:08:07;;;;;;;16.00;11.43;;;;;;;8.19;100.00;102173.47;4965367;28;20051;-86
2021/12/15 05:10:40;;;;;;;17.55;11.95;;;;;;;8.18;100.00;102169.06;4948013;28;20046;-86
2021/12/15 05:13:08;;;;;;;20.52;12.13;;;;;;;8.20;100.00;102171.72;4954011;28;20089;-86
2021/12/15 05:15:37;;;;;;;17.65;12.02;;;;;;;8.19;100.00;102181.28;4932573;28;22192;-84
2021/12/15 05:18:23;;;;;;;19.95;12.68;;;;;;;8.18;100.00;102178.63;4970795;28;20051;-89
2021/12/15 05:20:53;;;;;;;18.50;12.20;;;;;;;8.19;100.00;102185.63;4960037;28;20070;-87
2021/12/15 05:23:20;;;;;;;16.05;11.32;;;;;;;8.20;100.00;102184.75;4946472;28;20112;-86
2021/12/15 05:25:50;;;;;;;20.83;12.13;;;;;;;8.23;100.00;102190.94;4940762;28;20116;-91
2021/12/15 05:28:18;;;;;;;13.80;10.57;;;;;;;8.21;100.00;102190.03;4974005;28;20049;-84
2021/12/15 05:30:44;;;;;;;18.98;12.88;;;;;;;8.25;100.00;102193.59;4959996;28;20042;-85
2021/12/15 05:33:11;;;;;;;17.88;13.05;;;;;;;8.24;100.00;102184.91;4974729;28;20038;-86
2021/12/15 05:35:43;;;;;;;17.65;11.98;;;;;;;8.26;100.00;102188.41;4973570;28;20140;-86
2021/12/15 05:38:10;;;;;;;17.55;11.75;;;;;;;8.33;100.00;102199.00;4985358;28;20049;-89
2021/12/15 05:40:45;;;;;;;18.17;12.23;;;;;;;8.32;100.00;102192.00;4971322;28;20156;-87
2021/12/15 05:43:15;;;;;;;20.80;13.57;;;;;;;8.33;100.00;102207.72;4955978;28;20095;-90
2021/12/15 05:45:45;;;;;;;18.23;12.05;;;;;;;8.33;100.00;102196.41;4984688;28;20176;-86
2021/12/15 05:48:20;;;;;;;18.55;12.20;;;;;;;8.35;100.00;102210.38;4974462;28;20160;-87
2021/12/15 05:50:51;;;;;;;20.38;13.50;;;;;;;8.36;100.00;102206.94;4970791;28;20089;-85
2021/12/15 05:53:21;;;;;;;24.75;14.30;;;;;;;8.38;100.00;102208.72;4976567;28;20377;-86
2021/12/15 05:56:09;;;;;;;22.65;13.82;;;;;;;8.39;100.00;102207.00;4981318;28;20635;-86
2021/12/15 05:58:37;;;;;;;23.42;15.15;;;;;;;8.38;100.00;102211.34;4958811;28;20043;-88
2021/12/15 06:01:09;;;;;;;28.00;17.10;;;;;;;8.39;100.00;102205.25;4961001;28;20049;-84
2021/12/15 06:03:36;;;;;;;27.52;17.60;;;;;;;8.39;100.00;102214.81;4975714;28;20057;-88
2021/12/15 06:06:03;;;;;;;38.17;19.13;;;;;;;8.35;100.00;102215.59;4992138;28;20153;-84
2021/12/15 06:08:31;;;;;;;30.17;19.48;;;;;;;8.31;100.00;102214.63;4976197;28;20038;-88
2021/12/15 06:10:58;;;;;;;32.40;18.90;;;;;;;8.30;100.00;102210.25;4984780;28;20038;-85
2021/12/15 06:13:31;;;;;;;33.83;19.90;;;;;;;8.26;100.00;102214.50;4978793;28;20084;-86
2021/12/15 06:16:00;;;;;;;35.70;21.42;;;;;;;8.21;100.00;102216.13;4987077;28;20052;-86
2021/12/15 06:18:27;;;;;;;37.88;20.85;;;;;;;8.16;100.00;102222.06;4977673;28;20069;-87
2021/12/15 06:20:56;;;;;;;40.00;21.60;;;;;;;8.14;100.00;102221.16;4975779;28;20046;-85
2021/12/15 06:23:27;;;;;;;35.10;20.90;;;;;;;8.10;100.00;102226.25;4987922;28;20481;-87
2021/12/15 06:26:09;;;;;;;42.40;23.38;;;;;;;8.06;100.00;102234.84;4990246;28;20123;-84
2021/12/15 06:28:37;;;;;;;44.22;22.70;;;;;;;8.01;100.00;102227.75;4980754;28;20497;-85
2021/12/15 06:31:08;;;;;;;39.22;22.73;;;;;;;7.99;100.00;102225.13;4972327;28;20175;-90
2021/12/15 06:33:38;;;;;;;41.72;23.17;;;;;;;7.97;100.00;102238.94;4980683;28;20045;-87
2021/12/15 06:36:07;;;;;;;35.00;19.85;;;;;;;7.94;100.00;102229.31;4971453;28;20058;-87
2021/12/15 06:38:41;;;;;;;38.92;22.05;;;;;;;7.94;100.00;102230.19;4993944;28;20045;-85
2021/12/15 06:41:10;;;;;;;45.70;25.25;;;;;;;7.95;100.00;102231.97;4970098;28;20133;-86
2021/12/15 06:43:39;;;;;;;41.85;21.98;;;;;;;7.94;100.00;102230.19;4965722;28;20058;-87
2021/12/15 06:46:25;;;;;;;40.50;23.88;;;;;;;7.98;100.00;102227.66;5002100;28;20052;-90
2021/12/15 06:59:57;;;;;;;40.17;22.58;;;;;;;8.08;100.00;102234.88;4925415;28;20086;-84
2021/12/15 07:02:25;;;;;;;36.70;22.00;;;;;;;8.10;100.00;102241.03;4964918;28;20470;-88
2021/12/15 07:04:52;;;;;;;34.40;19.00;;;;;;;8.08;100.00;102240.09;4984627;28;20703;-86
2021/12/15 07:07:18;;;;;;;37.50;22.33;;;;;;;8.08;100.00;102243.63;4968541;28;20053;-88
2021/12/15 07:09:45;;;;;;;38.03;20.75;;;;;;;8.05;100.00;102248.72;4993730;28;20038;-86
2021/12/15 07:12:12;;;;;;;39.65;21.38;;;;;;;8.04;100.00;102244.34;4977571;28;20042;-85
2021/12/15 07:14:38;;;;;;;37.45;21.35;;;;;;;8.00;100.00;102236.41;4993296;28;20116;-86
2021/12/15 07:17:10;;;;;;;37.97;21.77;;;;;;;7.99;100.00;102250.28;4960826;28;20069;-85
2021/12/15 07:20:02;;;;;;;40.55;22.40;;;;;;;7.98;100.00;102253.72;4991471;28;20049;-86
2021/12/15 07:22:32;;;;;;;39.00;22.45;;;;;;;7.97;100.00;102258.06;4982603;28;20507;-84
2021/12/15 07:25:01;;;;;;;43.03;22.52;;;;;;;7.92;100.00;102260.53;4979615;28;20050;-89
2021/12/15 07:27:28;;;;;;;42.33;21.52;;;;;;;7.91;100.00;102269.22;4949041;28;20046;-91
2021/12/15 07:29:55;;;;;;;48.05;23.33;;;;;;;7.90;100.00;102264.84;4978560;28;20074;-88
2021/12/15 07:32:24;;;;;;;43.90;22.52;;;;;;;7.91;100.00;102273.53;4972564;28;20101;-90
2021/12/15 07:34:51;;;;;;;43.53;21.50;;;;;;;7.88;100.00;102273.47;4955173;28;20054;-87
2021/12/15 07:37:18;;;;;;;37.72;21.27;;;;;;;7.88;100.00;102273.47;4958758;28;20054;-89
2021/12/15 07:39:54;;;;;;;35.28;21.77;;;;;;;7.88;100.00;102266.50;4961072;28;20560;-88
2021/12/15 07:42:31;;;;;;;39.72;21.00;;;;;;;7.89;100.00;102273.50;4956787;28;20540;-87
2021/12/15 07:44:58;;;;;;;44.35;22.30;;;;;;;7.90;100.00;102270.06;4970118;28;20051;-89
2021/12/15 07:47:25;;;;;;;43.60;21.17;;;;;;;7.91;100.00;102270.94;4955648;28;20058;-86
2021/12/15 07:49:51;;;;;;;36.75;21.70;;;;;;;7.93;100.00;102269.28;4955516;28;20050;-86
2021/12/15 07:52:18;;;;;;;36.58;21.23;;;;;;;7.95;100.00;102270.19;4961487;28;20754;-89
2021/12/15 07:54:45;;;;;;;37.15;20.15;;;;;;;7.97;100.00;102273.72;4952901;28;20054;-87
2021/12/15 07:57:17;;;;;;;36.03;21.17;;;;;;;7.98;100.00;102272.88;4957571;28;20046;-86
2021/12/15 07:59:44;;;;;;;33.45;20.30;;;;;;;8.01;100.00;102279.91;4940622;28;20426;-89
2021/12/15 08:02:10;;;;;;;33.72;19.30;;;;;;;8.04;100.00;102277.38;4935057;28;20529;-86
2021/12/15 08:04:37;;;;;;;33.53;20.02;;;;;;;8.05;100.00;102273.94;4957600;28;20098;-86
2021/12/15 08:07:04;;;;;;;30.52;18.13;;;;;;;8.07;100.00;102278.34;4950626;28;20117;-90
2021/12/15 08:09:31;;;;;;;31.33;19.35;;;;;;;8.11;100.00;102285.41;4956344;28;20412;-89
2021/12/15 08:11:58;;;;;;;36.13;20.08;;;;;;;8.12;100.00;102278.47;4971113;28;20039;-90
2021/12/15 08:14:25;;;;;;;32.88;18.88;;;;;;;8.13;100.00;102277.63;4936360;28;20231;-90
2021/12/15 08:16:52;;;;;;;29.38;18.52;;;;;;;8.17;100.00;102276.88;4967625;28;20057;-88
2021/12/15 08:19:19;;;;;;;29.92;19.13;;;;;;;8.20;100.00;102287.41;4933080;28;20493;-85
2021/12/15 08:21:47;;;;;;;31.27;19.10;;;;;;;8.22;100.00;102292.66;4952724;28;20067;-86
2021/12/15 08:24:15;;;;;;;34.08;18.58;;;;;;;8.24;100.00;102291.84;4967197;28;20066;-85
2021/12/15 08:26:42;;;;;;;30.50;19.00;;;;;;;8.26;100.00;102297.97;4956803;28;20042;-87
2021/12/15 08:29:09;;;;;;;29.17;18.48;;;;;;;8.29;100.00;102297.19;4968063;28;20246;-86
2021/12/15 08:31:35;;;;;;;29.73;17.80;;;;;;;8.32;100.00;102301.59;4978521;28;20054;-89
2021/12/15 08:34:02;;;;;;;30.17;18.02;;;;;;;8.35;100.00;102297.34;4997002;28;20022;-90
2021/12/15 08:36:31;;;;;;;30.25;18.48;;;;;;;8.37;100.00;102297.38;4960702;28;20120;-87
2021/12/15 08:38:57;;;;;;;29.30;18.00;;;;;;;8.37;100.00;102297.38;4969433;28;22288;-87
2021/12/15 08:41:29;;;;;;;33.67;18.17;;;;;;;8.40;100.00;102294.88;4969520;28;21185;-86
2021/12/15 08:43:57;;;;;;;29.10;18.48;;;;;;;8.42;100.00;102295.78;4981943;28;20054;-90
2021/12/15 08:46:34;;;;;;;31.10;17.98;;;;;;;8.44;100.00;102297.59;4970022;28;20050;-87
2021/12/15 08:49:02;;;;;;;30.20;17.33;;;;;;;8.45;100.00;102295.88;4958462;28;20137;-88
2021/12/15 08:51:31;;;;;;;29.95;17.83;;;;;;;8.47;100.00;102290.72;4965928;28;20046;-88
2021/12/15 08:54:05;;;;;;;25.90;16.38;;;;;;;8.48;100.00;102297.72;4984239;28;20110;-90
2021/12/15 08:56:33;;;;;;;25.80;16.77;;;;;;;8.51;100.00;102287.34;4967361;28;20420;-87
2021/12/15 08:59:00;;;;;;;27.83;15.63;;;;;;;8.50;100.00;102298.63;4984128;28;20101;-86
2021/12/15 09:01:28;;;;;;;21.75;14.85;;;;;;;8.51;100.00;102295.19;4955369;28;20051;-88
2021/12/15 09:03:55;;;;;;;25.60;15.15;;;;;;;8.52;100.00;102289.13;4967633;28;20053;-88
2021/12/15 09:06:22;;;;;;;25.83;14.50;;;;;;;8.54;100.00;102292.63;4967203;28;20046;-87
2021/12/15 09:08:50;;;;;;;22.75;13.90;;;;;;;8.54;100.00;102292.63;4967305;28;20061;-85
2021/12/15 09:11:23;;;;;;;21.42;13.98;;;;;;;8.56;100.00;102296.19;4967262;28;20452;-86
2021/12/15 09:13:54;;;;;;;21.65;13.77;;;;;;;8.59;100.00;102297.16;4987952;28;20042;-86
2021/12/15 09:16:23;;;;;;;18.83;12.75;;;;;;;8.60;100.00;102304.16;4949461;28;20046;-86
2021/12/15 09:18:51;;;;;;;21.67;14.05;;;;;;;8.65;100.00;102311.22;4970235;28;20052;-89
2021/12/15 09:21:23;;;;;;;19.80;13.18;;;;;;;8.63;100.00;102313.78;4948184;28;20101;-88
2021/12/15 09:23:51;;;;;;;20.63;12.57;;;;;;;8.66;100.00;102307.78;4983679;28;20061;-86
2021/12/15 09:26:24;;;;;;;17.48;13.00;;;;;;;8.66;100.00;102308.63;4956334;28;20394;-85
2021/12/15 09:28:51;;;;;;;19.08;12.70;;;;;;;8.68;100.00;102314.78;4966945;28;20046;-87
2021/12/15 09:31:18;;;;;;;17.50;11.73;;;;;;;8.68;100.00;102319.13;4963544;28;20054;-87
2021/12/15 09:33:49;;;;;;;19.83;12.65;;;;;;;8.67;100.00;102319.94;4966049;28;20046;-86
2021/12/15 09:36:18;;;;;;;15.63;11.35;;;;;;;8.65;100.00;102319.91;4949804;28;20047;-86
2021/12/15 09:38:50;;;;;;;16.70;11.98;;;;;;;8.66;100.00;102326.03;4953297;28;20053;-88
2021/12/15 09:41:20;;;;;;;20.42;12.38;;;;;;;8.66;100.00;102323.44;4961872;28;20296;-90
2021/12/15 09:43:49;;;;;;;17.73;12.25;;;;;;;8.65;100.00;102325.13;4964099;28;20397;-85
2021/12/15 09:46:28;;;;;;;17.90;11.40;;;;;;;8.67;100.00;102320.84;4977222;28;20779;-86
2021/12/15 09:57:19;;;;;;;20.08;13.20;;;;;;;8.67;100.00;102315.63;4971438;28;19925;-86
2021/12/15 10:02:56;;;;;;;16.17;11.63;;;;;;;8.68;100.00;102320.00;4956102;28;20054;-88
2021/12/15 10:11:20;;;;;;;15.40;11.43;;;;;;;8.65;100.00;102316.44;4950336;28;20408;-86
2021/12/15 10:19:46;;;;;;;20.52;13.00;;;;;;;8.68;100.00;102321.72;4993642;28;20053;-91
2021/12/15 10:22:38;;;;;;;18.02;12.57;;;;;;;8.66;100.00;102321.69;4980634;28;20042;-85
2021/12/15 10:25:11;;;;;;;14.48;11.25;;;;;;;8.67;100.00;102319.94;4976731;28;20488;-88
2021/12/15 10:27:53;;;;;;;18.63;13.07;;;;;;;8.70;100.00;102320.91;4984041;28;20158;-86
2021/12/15 10:31:22;;;;;;;17.73;12.07;;;;;;;8.71;100.00;102317.47;4960770;28;20114;-87
2021/12/15 10:33:55;;;;;;;17.40;12.23;;;;;;;8.68;100.00;102308.66;4969236;28;20077;-83
2021/12/15 10:36:32;;;;;;;17.70;12.15;;;;;;;8.71;100.00;102308.78;4969461;28;20054;-90
2021/12/15 10:39:08;;;;;;;18.20;13.55;;;;;;;8.67;100.00;102305.19;4977247;28;20050;-89
2021/12/15 10:41:42;;;;;;;18.45;13.13;;;;;;;8.70;100.00;102313.09;4985811;28;20047;-88
2021/12/15 10:44:21;;;;;;;19.00;12.52;;;;;;;8.71;100.00;102312.25;4960211;28;20064;-85
2021/12/15 10:47:04;;;;;;;20.02;12.98;;;;;;;8.77;100.00;102316.72;4981636;28;20059;-88
2021/12/15 10:49:35;;;;;;;19.98;13.75;;;;;;;8.78;100.00;102313.28;4964165;28;20054;-88
2021/12/15 10:52:10;;;;;;;21.38;14.38;;;;;;;8.81;100.00;102317.69;4972022;28;20056;-86
2021/12/15 10:54:54;;;;;;;17.00;12.90;;;;;;;8.82;100.00;102320.34;4958693;28;20042;-85
2021/12/15 10:57:38;;;;;;;18.48;12.98;;;;;;;8.83;100.00;102324.72;4956277;28;20060;-86
2021/12/15 11:00:12;;;;;;;20.83;13.63;;;;;;;8.84;100.00;102315.16;4990401;28;20050;-91
2021/12/15 11:02:40;;;;;;;18.30;12.25;;;;;;;8.84;100.00;102310.84;4971498;28;20503;-86
2021/12/15 11:05:22;;;;;;;21.88;13.18;;;;;;;8.84;100.00;102313.44;4980773;28;20042;-86
2021/12/15 11:07:58;;;;;;;17.98;12.02;;;;;;;8.84;100.00;102315.16;4952978;28;20042;-88
2021/12/15 11:10:36;;;;;;;20.50;13.05;;;;;;;8.85;100.00;102314.31;4956277;28;20058;-86
2021/12/15 11:13:10;;;;;;;19.73;12.73;;;;;;;8.86;100.00;102313.47;4954961;28;20042;-85
2021/12/15 11:15:42;;;;;;;18.77;14.10;;;;;;;8.86;100.00;102319.56;4972841;28;20053;-86
2021/12/15 11:18:25;;;;;;;18.42;12.98;;;;;;;8.86;100.00;102316.97;4969753;28;20477;-88
2021/12/15 11:21:04;;;;;;;17.92;13.60;;;;;;;8.86;100.00;102327.41;4980419;28;20061;-88
2021/12/15 11:23:36;;;;;;;19.08;14.13;;;;;;;8.86;100.00;102316.97;4970213;28;20548;-87
2021/12/15 11:26:13;;;;;;;17.42;12.75;;;;;;;8.91;100.00;102311.88;4971107;28;20071;-87
2021/12/15 11:28:50;;;;;;;18.33;13.65;;;;;;;8.86;100.00;102314.34;4959386;28;20051;-87
2021/12/15 11:31:24;;;;;;;22.58;14.32;;;;;;;8.89;100.00;102310.94;4934210;28;20582;-86
2021/12/15 11:33:57;;;;;;;;;;;;;;;8.88;100.00;102310.06;4955517;28;20150;-85
2021/12/15 11:36:31;;;;;;;17.75;12.65;;;;;;;8.90;100.00;102311.00;4950398;28;20333;-87
2021/12/15 11:39:16;;;;;;;20.13;12.50;;;;;;;8.91;100.00;102298.81;4954289;28;20054;-86
2021/12/15 11:41:55;;;;;;;19.17;13.30;;;;;;;8.94;100.00;102297.16;4951924;28;20054;-85
2021/12/15 11:44:28;;;;;;;16.42;12.07;;;;;;;8.93;100.00;102299.75;4937941;28;20536;-85
2021/12/15 11:47:03;;;;;;;20.17;14.18;;;;;;;8.92;100.00;102297.97;4955782;28;20474;-86
2021/12/15 11:49:35;;;;;;;21.58;15.02;;;;;;;8.93;100.00;102294.50;4970559;28;20053;-87
2021/12/15 11:52:28;;;;;;;17.00;11.88;;;;;;;8.95;100.00;102295.41;4954388;28;20046;-86
2021/12/15 11:54:55;;;;;;;18.48;13.55;;;;;;;8.96;100.00;102293.69;4942968;28;20050;-86
2021/12/15 11:57:29;;;;;;;20.08;13.40;;;;;;;9.02;100.00;102294.72;4953980;28;20062;-87
2021/12/15 11:59:59;;;;;;;;;;;;;;;9.02;100.00;102293.84;4938437;28;20165;-88
2021/12/15 12:02:30;;;;;;;23.05;14.43;;;;;;;9.03;100.00;102298.22;4943551;28;20014;-86
2021/12/15 12:05:01;;;;;;;26.00;14.73;;;;;;;9.08;100.00;102293.97;4971207;28;20086;-92
2021/12/15 12:07:47;;;;;;;21.85;14.48;;;;;;;9.11;100.00;102294.03;4978928;28;20043;-91
2021/12/15 12:10:23;;;;;;;20.75;14.07;;;;;;;9.09;100.00;102296.63;4961526;28;20042;-88
2021/12/15 12:13:05;;;;;;;21.15;14.13;;;;;;;9.09;100.00;102288.78;4955980;28;20500;-89
2021/12/15 12:15:37;;;;;;;21.25;15.48;;;;;;;9.09;100.00;102295.75;4960150;28;20108;-86
2021/12/15 12:18:09;;;;;;;19.25;14.95;;;;;;;9.09;100.00;102291.41;4970518;28;20480;-86
2021/12/15 12:20:47;;;;;;;22.70;14.73;;;;;;;9.09;100.00;102293.16;4945206;28;20051;-85
2021/12/15 12:23:19;;;;;;;20.50;13.80;;;;;;;9.13;99.70;102287.13;4955206;28;21155;-86
2021/12/15 12:25:49;;;;;;;19.17;13.75;;;;;;;9.14;99.39;102267.09;4951988;28;20047;-85
2021/12/15 12:28:28;;;;;;;21.73;14.63;;;;;;;9.20;99.78;102275.97;4976146;28;20488;-85
2021/12/15 12:31:05;;;;;;;19.25;13.70;;;;;;;9.26;98.71;102267.41;4991219;28;21246;-84
2021/12/15 12:33:33;;;;;;;19.30;13.60;;;;;;;9.33;98.43;102271.03;4976061;28;21172;-86